Terminal Aerodrome Forecast
Issued by NWS

Home | Current Version | Previous Version | Text Only | Print | Product List | Glossary Off
Versions: 1 2 3 4 5 6 7 8 9 10 11 12 13 14

000
FTUS43 KBIS 030800 AAB
TAFJMS
TAF AMD
KJMS 030820Z 0308/0406 33016G25KT P6SM SCT080
     FM031100 32022G28KT P6SM BKN020
     FM031500 32024G30KT P6SM SCT015 BKN035=

USA.gov is the U.S. government's official web portal to all federal, state and local government web resources and services.